sensor_id;sensor_type;location;lat;lon;timestamp;P1;durP1;ratioP1;P2;durP2;ratioP2
41903;SDS011;27586;51.124;4.182;2023-04-03T00:01:31;6.53;;;4.28;;
41903;SDS011;27586;51.124;4.182;2023-04-03T00:03:57;5.22;;;3.60;;
41903;SDS011;27586;51.124;4.182;2023-04-03T00:06:23;5.68;;;3.42;;
41903;SDS011;27586;51.124;4.182;2023-04-03T00:08:50;3.92;;;3.55;;
41903;SDS011;27586;51.124;4.182;2023-04-03T00:11:16;6.10;;;3.72;;
41903;SDS011;27586;51.124;4.182;2023-04-03T00:13:42;5.47;;;3.47;;
41903;SDS011;27586;51.124;4.182;2023-04-03T00:16:09;6.18;;;3.63;;
41903;SDS011;27586;51.124;4.182;2023-04-03T00:18:36;4.57;;;3.50;;
41903;SDS011;27586;51.124;4.182;2023-04-03T00:21:03;6.35;;;3.47;;
41903;SDS011;27586;51.124;4.182;2023-04-03T00:23:29;5.45;;;3.92;;
41903;SDS011;27586;51.124;4.182;2023-04-03T00:25:55;6.10;;;3.92;;
41903;SDS011;27586;51.124;4.182;2023-04-03T00:28:21;5.25;;;3.45;;
41903;SDS011;27586;51.124;4.182;2023-04-03T00:30:48;5.72;;;3.70;;
41903;SDS011;27586;51.124;4.182;2023-04-03T00:33:14;6.22;;;4.38;;
41903;SDS011;27586;51.124;4.182;2023-04-03T00:35:41;5.28;;;4.05;;
41903;SDS011;27586;51.124;4.182;2023-04-03T00:38:07;8.77;;;4.38;;
41903;SDS011;27586;51.124;4.182;2023-04-03T00:40:34;5.53;;;4.15;;
41903;SDS011;27586;51.124;4.182;2023-04-03T00:43:01;5.63;;;4.72;;
41903;SDS011;27586;51.124;4.182;2023-04-03T00:45:37;7.00;;;4.07;;
41903;SDS011;27586;51.124;4.182;2023-04-03T00:48:06;8.07;;;4.90;;
41903;SDS011;27586;51.124;4.182;2023-04-03T00:50:35;6.38;;;4.53;;
41903;SDS011;27586;51.124;4.182;2023-04-03T00:53:03;4.80;;;4.18;;
41903;SDS011;27586;51.124;4.182;2023-04-03T00:55:31;6.05;;;4.78;;
41903;SDS011;27586;51.124;4.182;2023-04-03T00:57:57;6.65;;;4.53;;
41903;SDS011;27586;51.124;4.182;2023-04-03T01:00:25;5.18;;;4.25;;
41903;SDS011;27586;51.124;4.182;2023-04-03T01:02:51;5.10;;;4.18;;
41903;SDS011;27586;51.124;4.182;2023-04-03T01:05:17;7.20;;;4.43;;
41903;SDS011;27586;51.124;4.182;2023-04-03T01:07:45;6.93;;;4.50;;
41903;SDS011;27586;51.124;4.182;2023-04-03T01:10:12;5.45;;;4.63;;
41903;SDS011;27586;51.124;4.182;2023-04-03T01:12:41;7.22;;;4.70;;
41903;SDS011;27586;51.124;4.182;2023-04-03T01:15:11;6.47;;;4.20;;
41903;SDS011;27586;51.124;4.182;2023-04-03T01:17:59;5.30;;;3.65;;
41903;SDS011;27586;51.124;4.182;2023-04-03T01:25:32;7.07;;;5.00;;
41903;SDS011;27586;51.124;4.182;2023-04-03T01:28:01;7.32;;;4.80;;
41903;SDS011;27586;51.124;4.182;2023-04-03T01:30:30;8.15;;;5.13;;
41903;SDS011;27586;51.124;4.182;2023-04-03T01:32:59;6.47;;;5.05;;
41903;SDS011;27586;51.124;4.182;2023-04-03T01:35:25;6.53;;;5.05;;
41903;SDS011;27586;51.124;4.182;2023-04-03T01:37:51;7.97;;;4.95;;
41903;SDS011;27586;51.124;4.182;2023-04-03T01:40:17;7.78;;;4.70;;
41903;SDS011;27586;51.124;4.182;2023-04-03T01:42:42;6.03;;;4.93;;
41903;SDS011;27586;51.124;4.182;2023-04-03T01:45:08;5.50;;;4.57;;
41903;SDS011;27586;51.124;4.182;2023-04-03T01:47:34;6.15;;;4.95;;
41903;SDS011;27586;51.124;4.182;2023-04-03T01:50:00;6.47;;;4.85;;
41903;SDS011;27586;51.124;4.182;2023-04-03T01:52:26;8.50;;;4.80;;
41903;SDS011;27586;51.124;4.182;2023-04-03T01:54:51;5.93;;;5.03;;
41903;SDS011;27586;51.124;4.182;2023-04-03T01:57:17;6.20;;;4.78;;
41903;SDS011;27586;51.124;4.182;2023-04-03T01:59:42;7.47;;;4.68;;
41903;SDS011;27586;51.124;4.182;2023-04-03T02:02:08;8.38;;;5.15;;
41903;SDS011;27586;51.124;4.182;2023-04-03T02:04:34;9.13;;;4.93;;
41903;SDS011;27586;51.124;4.182;2023-04-03T02:07:00;5.88;;;5.00;;
41903;SDS011;27586;51.124;4.182;2023-04-03T02:09:26;7.25;;;4.35;;
41903;SDS011;27586;51.124;4.182;2023-04-03T02:11:52;7.10;;;5.03;;
41903;SDS011;27586;51.124;4.182;2023-04-03T02:14:17;7.15;;;5.20;;
41903;SDS011;27586;51.124;4.182;2023-04-03T02:16:43;7.78;;;5.35;;
41903;SDS011;27586;51.124;4.182;2023-04-03T02:19:09;6.63;;;5.25;;
41903;SDS011;27586;51.124;4.182;2023-04-03T02:21:35;6.00;;;4.50;;
41903;SDS011;27586;51.124;4.182;2023-04-03T02:24:00;5.43;;;4.53;;
41903;SDS011;27586;51.124;4.182;2023-04-03T02:26:26;8.05;;;5.10;;
41903;SDS011;27586;51.124;4.182;2023-04-03T02:28:52;6.78;;;4.63;;
41903;SDS011;27586;51.124;4.182;2023-04-03T02:31:18;7.22;;;5.32;;
41903;SDS011;27586;51.124;4.182;2023-04-03T02:33:43;6.70;;;4.63;;
41903;SDS011;27586;51.124;4.182;2023-04-03T02:36:09;6.63;;;4.40;;
41903;SDS011;27586;51.124;4.182;2023-04-03T02:38:35;6.22;;;4.50;;
41903;SDS011;27586;51.124;4.182;2023-04-03T02:41:02;7.80;;;5.38;;
41903;SDS011;27586;51.124;4.182;2023-04-03T02:43:32;6.82;;;5.10;;
41903;SDS011;27586;51.124;4.182;2023-04-03T02:45:57;8.55;;;4.88;;
41903;SDS011;27586;51.124;4.182;2023-04-03T02:48:23;8.18;;;5.30;;
41903;SDS011;27586;51.124;4.182;2023-04-03T02:50:50;7.78;;;5.53;;
41903;SDS011;27586;51.124;4.182;2023-04-03T02:53:16;5.50;;;4.88;;
41903;SDS011;27586;51.124;4.182;2023-04-03T02:55:41;7.25;;;5.68;;
41903;SDS011;27586;51.124;4.182;2023-04-03T02:58:07;5.85;;;5.35;;
41903;SDS011;27586;51.124;4.182;2023-04-03T03:00:33;5.78;;;5.22;;
41903;SDS011;27586;51.124;4.182;2023-04-03T03:02:59;8.75;;;4.65;;
41903;SDS011;27586;51.124;4.182;2023-04-03T03:05:25;5.38;;;4.88;;
41903;SDS011;27586;51.124;4.182;2023-04-03T03:07:51;6.75;;;5.18;;
41903;SDS011;27586;51.124;4.182;2023-04-03T03:10:17;5.38;;;4.80;;
41903;SDS011;27586;51.124;4.182;2023-04-03T03:12:42;8.52;;;4.80;;
41903;SDS011;27586;51.124;4.182;2023-04-03T03:15:08;8.68;;;4.95;;
41903;SDS011;27586;51.124;4.182;2023-04-03T03:17:34;7.82;;;5.10;;
41903;SDS011;27586;51.124;4.182;2023-04-03T03:20:01;7.80;;;4.90;;
41903;SDS011;27586;51.124;4.182;2023-04-03T03:22:27;9.15;;;5.20;;
41903;SDS011;27586;51.124;4.182;2023-04-03T03:24:53;7.07;;;5.10;;
41903;SDS011;27586;51.124;4.182;2023-04-03T03:27:19;7.43;;;4.88;;
41903;SDS011;27586;51.124;4.182;2023-04-03T03:29:45;8.13;;;5.40;;
41903;SDS011;27586;51.124;4.182;2023-04-03T03:32:11;8.80;;;5.55;;
41903;SDS011;27586;51.124;4.182;2023-04-03T03:34:37;7.15;;;4.93;;
41903;SDS011;27586;51.124;4.182;2023-04-03T03:37:03;5.72;;;5.05;;
41903;SDS011;27586;51.124;4.182;2023-04-03T03:39:29;7.22;;;5.45;;
41903;SDS011;27586;51.124;4.182;2023-04-03T03:41:55;9.55;;;5.40;;
41903;SDS011;27586;51.124;4.182;2023-04-03T03:44:21;6.03;;;5.40;;
41903;SDS011;27586;51.124;4.182;2023-04-03T03:46:46;6.25;;;5.63;;
41903;SDS011;27586;51.124;4.182;2023-04-03T03:49:12;7.28;;;5.72;;
41903;SDS011;27586;51.124;4.182;2023-04-03T03:51:38;7.22;;;5.38;;
41903;SDS011;27586;51.124;4.182;2023-04-03T03:54:04;8.48;;;5.72;;
41903;SDS011;27586;51.124;4.182;2023-04-03T03:56:30;6.65;;;5.47;;
41903;SDS011;27586;51.124;4.182;2023-04-03T03:58:56;9.43;;;5.63;;
41903;SDS011;27586;51.124;4.182;2023-04-03T04:01:22;7.57;;;5.72;;
41903;SDS011;27586;51.124;4.182;2023-04-03T04:03:49;5.72;;;4.95;;
41903;SDS011;27586;51.124;4.182;2023-04-03T04:06:15;6.87;;;5.93;;
41903;SDS011;27586;51.124;4.182;2023-04-03T04:08:41;8.45;;;5.72;;
41903;SDS011;27586;51.124;4.182;2023-04-03T04:11:07;7.53;;;5.40;;
41903;SDS011;27586;51.124;4.182;2023-04-03T04:13:33;6.00;;;5.13;;
41903;SDS011;27586;51.124;4.182;2023-04-03T04:15:59;7.07;;;5.30;;
41903;SDS011;27586;51.124;4.182;2023-04-03T04:18:25;7.95;;;5.80;;
41903;SDS011;27586;51.124;4.182;2023-04-03T04:20:51;10.52;;;5.78;;
41903;SDS011;27586;51.124;4.182;2023-04-03T04:23:17;7.47;;;4.93;;
41903;SDS011;27586;51.124;4.182;2023-04-03T04:25:47;6.97;;;5.57;;
41903;SDS011;27586;51.124;4.182;2023-04-03T04:28:13;7.20;;;5.88;;
41903;SDS011;27586;51.124;4.182;2023-04-03T04:30:39;8.60;;;5.55;;
41903;SDS011;27586;51.124;4.182;2023-04-03T04:33:05;9.88;;;6.53;;
41903;SDS011;27586;51.124;4.182;2023-04-03T04:35:32;8.25;;;5.97;;
41903;SDS011;27586;51.124;4.182;2023-04-03T04:37:57;7.82;;;6.55;;
41903;SDS011;27586;51.124;4.182;2023-04-03T04:40:23;9.02;;;6.10;;
41903;SDS011;27586;51.124;4.182;2023-04-03T04:42:49;8.73;;;6.65;;
41903;SDS011;27586;51.124;4.182;2023-04-03T04:45:15;10.45;;;7.05;;
41903;SDS011;27586;51.124;4.182;2023-04-03T04:47:41;8.43;;;6.30;;
41903;SDS011;27586;51.124;4.182;2023-04-03T04:50:07;10.13;;;7.67;;
41903;SDS011;27586;51.124;4.182;2023-04-03T04:52:33;9.10;;;6.40;;
41903;SDS011;27586;51.124;4.182;2023-04-03T04:54:58;10.10;;;6.57;;
41903;SDS011;27586;51.124;4.182;2023-04-03T04:57:24;7.93;;;6.78;;
41903;SDS011;27586;51.124;4.182;2023-04-03T04:59:50;10.13;;;7.40;;
41903;SDS011;27586;51.124;4.182;2023-04-03T05:02:16;9.77;;;7.80;;
41903;SDS011;27586;51.124;4.182;2023-04-03T05:04:41;10.88;;;7.50;;
41903;SDS011;27586;51.124;4.182;2023-04-03T05:07:07;10.85;;;7.50;;
41903;SDS011;27586;51.124;4.182;2023-04-03T05:09:33;10.70;;;7.27;;
41903;SDS011;27586;51.124;4.182;2023-04-03T05:11:59;9.05;;;7.25;;
41903;SDS011;27586;51.124;4.182;2023-04-03T05:14:24;8.55;;;6.40;;
41903;SDS011;27586;51.124;4.182;2023-04-03T05:16:50;9.32;;;7.22;;
41903;SDS011;27586;51.124;4.182;2023-04-03T05:19:19;12.60;;;7.50;;
41903;SDS011;27586;51.124;4.182;2023-04-03T05:21:46;9.38;;;6.88;;
41903;SDS011;27586;51.124;4.182;2023-04-03T05:24:12;13.77;;;7.65;;
41903;SDS011;27586;51.124;4.182;2023-04-03T05:26:37;10.60;;;7.60;;
41903;SDS011;27586;51.124;4.182;2023-04-03T05:29:03;12.27;;;10.25;;
41903;SDS011;27586;51.124;4.182;2023-04-03T05:31:29;10.48;;;8.50;;
41903;SDS011;27586;51.124;4.182;2023-04-03T05:33:55;13.88;;;8.13;;
41903;SDS011;27586;51.124;4.182;2023-04-03T05:36:21;11.65;;;7.63;;
41903;SDS011;27586;51.124;4.182;2023-04-03T05:38:47;9.65;;;7.55;;
41903;SDS011;27586;51.124;4.182;2023-04-03T05:41:13;10.50;;;7.68;;
41903;SDS011;27586;51.124;4.182;2023-04-03T05:43:40;12.27;;;8.20;;
41903;SDS011;27586;51.124;4.182;2023-04-03T05:46:12;12.25;;;7.53;;
41903;SDS011;27586;51.124;4.182;2023-04-03T05:48:40;11.82;;;7.85;;
41903;SDS011;27586;51.124;4.182;2023-04-03T05:51:06;11.50;;;7.53;;
41903;SDS011;27586;51.124;4.182;2023-04-03T05:53:46;10.23;;;7.82;;
41903;SDS011;27586;51.124;4.182;2023-04-03T05:56:13;12.40;;;8.35;;
41903;SDS011;27586;51.124;4.182;2023-04-03T05:58:39;13.07;;;8.15;;
41903;SDS011;27586;51.124;4.182;2023-04-03T06:01:05;10.20;;;7.27;;
41903;SDS011;27586;51.124;4.182;2023-04-03T06:03:31;13.07;;;8.15;;
41903;SDS011;27586;51.124;4.182;2023-04-03T06:05:57;8.25;;;7.45;;
41903;SDS011;27586;51.124;4.182;2023-04-03T06:08:22;10.32;;;7.38;;
41903;SDS011;27586;51.124;4.182;2023-04-03T06:10:48;10.55;;;8.30;;
41903;SDS011;27586;51.124;4.182;2023-04-03T06:13:15;10.43;;;8.35;;
41903;SDS011;27586;51.124;4.182;2023-04-03T06:15:41;14.88;;;8.90;;
41903;SDS011;27586;51.124;4.182;2023-04-03T06:18:07;12.80;;;8.50;;
41903;SDS011;27586;51.124;4.182;2023-04-03T06:20:33;14.00;;;8.05;;
41903;SDS011;27586;51.124;4.182;2023-04-03T06:22:59;9.20;;;7.57;;
41903;SDS011;27586;51.124;4.182;2023-04-03T06:25:24;11.82;;;9.30;;
41903;SDS011;27586;51.124;4.182;2023-04-03T06:27:51;10.23;;;8.02;;
41903;SDS011;27586;51.124;4.182;2023-04-03T06:30:17;10.60;;;7.05;;
41903;SDS011;27586;51.124;4.182;2023-04-03T06:32:43;7.32;;;6.38;;
41903;SDS011;27586;51.124;4.182;2023-04-03T06:35:08;9.82;;;7.05;;
41903;SDS011;27586;51.124;4.182;2023-04-03T06:37:35;9.40;;;7.30;;
41903;SDS011;27586;51.124;4.182;2023-04-03T06:40:00;7.28;;;6.25;;
41903;SDS011;27586;51.124;4.182;2023-04-03T06:42:26;8.30;;;6.50;;
41903;SDS011;27586;51.124;4.182;2023-04-03T06:44:52;8.13;;;6.25;;
41903;SDS011;27586;51.124;4.182;2023-04-03T06:47:18;10.52;;;6.57;;
41903;SDS011;27586;51.124;4.182;2023-04-03T06:49:44;6.85;;;6.20;;
41903;SDS011;27586;51.124;4.182;2023-04-03T06:52:10;7.70;;;6.50;;
41903;SDS011;27586;51.124;4.182;2023-04-03T06:54:38;9.07;;;7.20;;
41903;SDS011;27586;51.124;4.182;2023-04-03T06:57:04;9.60;;;6.90;;
41903;SDS011;27586;51.124;4.182;2023-04-03T06:59:30;8.07;;;6.55;;
41903;SDS011;27586;51.124;4.182;2023-04-03T07:01:56;10.63;;;6.78;;
41903;SDS011;27586;51.124;4.182;2023-04-03T07:04:23;9.13;;;6.88;;
41903;SDS011;27586;51.124;4.182;2023-04-03T07:06:49;9.32;;;6.68;;
41903;SDS011;27586;51.124;4.182;2023-04-03T07:09:15;7.45;;;6.65;;
41903;SDS011;27586;51.124;4.182;2023-04-03T07:11:41;10.57;;;6.55;;
41903;SDS011;27586;51.124;4.182;2023-04-03T07:14:06;7.30;;;5.60;;
41903;SDS011;27586;51.124;4.182;2023-04-03T07:16:33;7.30;;;6.28;;
41903;SDS011;27586;51.124;4.182;2023-04-03T07:19:00;9.38;;;5.57;;
41903;SDS011;27586;51.124;4.182;2023-04-03T07:21:26;7.38;;;5.28;;
41903;SDS011;27586;51.124;4.182;2023-04-03T07:23:52;6.68;;;5.00;;
41903;SDS011;27586;51.124;4.182;2023-04-03T07:26:18;5.88;;;4.85;;
41903;SDS011;27586;51.124;4.182;2023-04-03T07:28:45;11.50;;;7.15;;
41903;SDS011;27586;51.124;4.182;2023-04-03T07:31:13;6.90;;;4.97;;
41903;SDS011;27586;51.124;4.182;2023-04-03T07:33:40;9.70;;;6.40;;
41903;SDS011;27586;51.124;4.182;2023-04-03T07:36:08;8.10;;;5.57;;
41903;SDS011;27586;51.124;4.182;2023-04-03T07:38:36;10.30;;;6.90;;
41903;SDS011;27586;51.124;4.182;2023-04-03T07:41:02;7.28;;;5.53;;
41903;SDS011;27586;51.124;4.182;2023-04-03T07:43:28;6.00;;;3.97;;
41903;SDS011;27586;51.124;4.182;2023-04-03T07:45:54;4.28;;;3.88;;
41903;SDS011;27586;51.124;4.182;2023-04-03T07:48:23;6.22;;;3.90;;
41903;SDS011;27586;51.124;4.182;2023-04-03T07:50:50;6.88;;;3.92;;
41903;SDS011;27586;51.124;4.182;2023-04-03T07:53:17;6.00;;;4.10;;
41903;SDS011;27586;51.124;4.182;2023-04-03T07:55:45;6.35;;;4.13;;
41903;SDS011;27586;51.124;4.182;2023-04-03T07:58:13;5.43;;;3.78;;
41903;SDS011;27586;51.124;4.182;2023-04-03T08:00:42;5.90;;;4.00;;
41903;SDS011;27586;51.124;4.182;2023-04-03T08:03:09;8.18;;;4.30;;
41903;SDS011;27586;51.124;4.182;2023-04-03T08:05:36;4.60;;;3.75;;
41903;SDS011;27586;51.124;4.182;2023-04-03T08:08:03;5.35;;;4.10;;
41903;SDS011;27586;51.124;4.182;2023-04-03T08:10:30;5.47;;;3.22;;
41903;SDS011;27586;51.124;4.182;2023-04-03T08:12:56;6.05;;;3.50;;
41903;SDS011;27586;51.124;4.182;2023-04-03T08:15:21;6.72;;;4.20;;
41903;SDS011;27586;51.124;4.182;2023-04-03T08:17:47;6.93;;;3.75;;
41903;SDS011;27586;51.124;4.182;2023-04-03T08:20:13;5.70;;;3.28;;
41903;SDS011;27586;51.124;4.182;2023-04-03T08:22:39;4.00;;;3.22;;
41903;SDS011;27586;51.124;4.182;2023-04-03T08:25:06;6.13;;;3.00;;
41903;SDS011;27586;51.124;4.182;2023-04-03T08:27:33;5.53;;;3.47;;
41903;SDS011;27586;51.124;4.182;2023-04-03T08:29:58;6.03;;;3.30;;
41903;SDS011;27586;51.124;4.182;2023-04-03T08:32:24;4.45;;;3.00;;
41903;SDS011;27586;51.124;4.182;2023-04-03T08:34:50;4.22;;;2.95;;
41903;SDS011;27586;51.124;4.182;2023-04-03T08:37:16;6.05;;;3.00;;
41903;SDS011;27586;51.124;4.182;2023-04-03T08:39:42;4.47;;;3.40;;
41903;SDS011;27586;51.124;4.182;2023-04-03T08:45:13;4.30;;;3.45;;
41903;SDS011;27586;51.124;4.182;2023-04-03T08:47:48;5.57;;;3.10;;
41903;SDS011;27586;51.124;4.182;2023-04-03T08:50:33;6.53;;;2.80;;
41903;SDS011;27586;51.124;4.182;2023-04-03T08:53:03;4.88;;;2.80;;
41903;SDS011;27586;51.124;4.182;2023-04-03T08:55:48;4.47;;;2.65;;
41903;SDS011;27586;51.124;4.182;2023-04-03T08:58:19;4.65;;;2.55;;
41903;SDS011;27586;51.124;4.182;2023-04-03T09:00:51;6.55;;;2.55;;
41903;SDS011;27586;51.124;4.182;2023-04-03T09:03:23;4.60;;;2.90;;
41903;SDS011;27586;51.124;4.182;2023-04-03T09:05:57;4.70;;;2.80;;
41903;SDS011;27586;51.124;4.182;2023-04-03T09:08:31;5.60;;;2.92;;
41903;SDS011;27586;51.124;4.182;2023-04-03T09:13:53;4.10;;;2.30;;
41903;SDS011;27586;51.124;4.182;2023-04-03T09:21:48;3.67;;;2.50;;
41903;SDS011;27586;51.124;4.182;2023-04-03T09:24:15;3.65;;;2.60;;
41903;SDS011;27586;51.124;4.182;2023-04-03T09:29:19;3.42;;;2.30;;
41903;SDS011;27586;51.124;4.182;2023-04-03T09:31:48;3.65;;;2.10;;
41903;SDS011;27586;51.124;4.182;2023-04-03T09:34:26;4.38;;;2.78;;
41903;SDS011;27586;51.124;4.182;2023-04-03T09:36:54;4.05;;;2.60;;
41903;SDS011;27586;51.124;4.182;2023-04-03T09:39:23;3.15;;;2.30;;
41903;SDS011;27586;51.124;4.182;2023-04-03T09:42:11;3.75;;;2.78;;
41903;SDS011;27586;51.124;4.182;2023-04-03T09:44:44;5.72;;;2.08;;
41903;SDS011;27586;51.124;4.182;2023-04-03T09:47:30;3.90;;;2.05;;
41903;SDS011;27586;51.124;4.182;2023-04-03T09:52:39;2.97;;;2.20;;
41903;SDS011;27586;51.124;4.182;2023-04-03T09:55:16;3.30;;;1.88;;
41903;SDS011;27586;51.124;4.182;2023-04-03T09:57:44;4.50;;;2.00;;
41903;SDS011;27586;51.124;4.182;2023-04-03T10:00:23;2.35;;;1.83;;
41903;SDS011;27586;51.124;4.182;2023-04-03T10:02:55;2.92;;;1.77;;
41903;SDS011;27586;51.124;4.182;2023-04-03T10:05:26;2.42;;;1.58;;
41903;SDS011;27586;51.124;4.182;2023-04-03T10:10:47;2.72;;;1.58;;
41903;SDS011;27586;51.124;4.182;2023-04-03T10:13:15;5.43;;;1.90;;
41903;SDS011;27586;51.124;4.182;2023-04-03T10:15:45;2.83;;;1.83;;
41903;SDS011;27586;51.124;4.182;2023-04-03T10:18:28;3.65;;;1.70;;
41903;SDS011;27586;51.124;4.182;2023-04-03T10:20:54;2.33;;;1.70;;
41903;SDS011;27586;51.124;4.182;2023-04-03T10:23:32;3.92;;;1.75;;
41903;SDS011;27586;51.124;4.182;2023-04-03T10:26:17;3.75;;;1.80;;
41903;SDS011;27586;51.124;4.182;2023-04-03T10:28:56;3.53;;;1.88;;
41903;SDS011;27586;51.124;4.182;2023-04-03T10:34:23;3.05;;;1.67;;
41903;SDS011;27586;51.124;4.182;2023-04-03T10:37:01;3.50;;;1.40;;
41903;SDS011;27586;51.124;4.182;2023-04-03T10:42:22;4.85;;;1.88;;
41903;SDS011;27586;51.124;4.182;2023-04-03T10:53:40;3.78;;;1.83;;
41903;SDS011;27586;51.124;4.182;2023-04-03T10:56:29;2.25;;;1.10;;
41903;SDS011;27586;51.124;4.182;2023-04-03T10:59:18;2.22;;;1.55;;
41903;SDS011;27586;51.124;4.182;2023-04-03T11:01:48;1.95;;;1.30;;
41903;SDS011;27586;51.124;4.182;2023-04-03T11:04:26;3.15;;;1.42;;
41903;SDS011;27586;51.124;4.182;2023-04-03T11:07:04;2.53;;;1.55;;
41903;SDS011;27586;51.124;4.182;2023-04-03T11:09:39;2.30;;;1.20;;
41903;SDS011;27586;51.124;4.182;2023-04-03T11:12:13;3.75;;;1.35;;
41903;SDS011;27586;51.124;4.182;2023-04-03T11:14:40;2.33;;;1.27;;
41903;SDS011;27586;51.124;4.182;2023-04-03T11:20:22;2.90;;;1.33;;
41903;SDS011;27586;51.124;4.182;2023-04-03T11:23:03;3.60;;;1.55;;
41903;SDS011;27586;51.124;4.182;2023-04-03T11:25:34;2.92;;;1.25;;
41903;SDS011;27586;51.124;4.182;2023-04-03T11:28:04;2.00;;;1.33;;
41903;SDS011;27586;51.124;4.182;2023-04-03T11:33:26;3.83;;;1.45;;
41903;SDS011;27586;51.124;4.182;2023-04-03T11:35:55;2.42;;;2.00;;
41903;SDS011;27586;51.124;4.182;2023-04-03T11:38:34;1.52;;;1.27;;
41903;SDS011;27586;51.124;4.182;2023-04-03T11:41:04;2.63;;;1.13;;
41903;SDS011;27586;51.124;4.182;2023-04-03T11:43:32;2.78;;;1.35;;
41903;SDS011;27586;51.124;4.182;2023-04-03T11:50:53;2.33;;;1.52;;
41903;SDS011;27586;51.124;4.182;2023-04-03T11:53:33;2.78;;;1.90;;
41903;SDS011;27586;51.124;4.182;2023-04-03T11:56:02;3.05;;;1.50;;
41903;SDS011;27586;51.124;4.182;2023-04-03T11:58:33;1.83;;;1.25;;
41903;SDS011;27586;51.124;4.182;2023-04-03T12:04:02;4.22;;;3.15;;
41903;SDS011;27586;51.124;4.182;2023-04-03T12:08:57;2.42;;;1.10;;
41903;SDS011;27586;51.124;4.182;2023-04-03T12:22:11;3.00;;;1.58;;
41903;SDS011;27586;51.124;4.182;2023-04-03T12:24:45;2.97;;;1.17;;
41903;SDS011;27586;51.124;4.182;2023-04-03T12:29:51;2.55;;;1.30;;
41903;SDS011;27586;51.124;4.182;2023-04-03T12:38:17;3.38;;;2.47;;
41903;SDS011;27586;51.124;4.182;2023-04-03T12:48:47;2.72;;;1.58;;
41903;SDS011;27586;51.124;4.182;2023-04-03T12:51:27;3.25;;;2.53;;
41903;SDS011;27586;51.124;4.182;2023-04-03T12:56:51;1.73;;;1.02;;
41903;SDS011;27586;51.124;4.182;2023-04-03T12:59:33;2.88;;;1.00;;
41903;SDS011;27586;51.124;4.182;2023-04-03T13:02:01;2.13;;;0.98;;
41903;SDS011;27586;51.124;4.182;2023-04-03T13:04:27;0.80;;;0.80;;
41903;SDS011;27586;51.124;4.182;2023-04-03T13:06:54;1.08;;;0.90;;
41903;SDS011;27586;51.124;4.182;2023-04-03T13:09:21;1.88;;;1.05;;
41903;SDS011;27586;51.124;4.182;2023-04-03T13:12:11;2.28;;;1.20;;
41903;SDS011;27586;51.124;4.182;2023-04-03T13:14:40;3.78;;;1.00;;
41903;SDS011;27586;51.124;4.182;2023-04-03T13:17:16;4.03;;;1.10;;
41903;SDS011;27586;51.124;4.182;2023-04-03T13:19:42;1.58;;;1.05;;
41903;SDS011;27586;51.124;4.182;2023-04-03T13:24:59;1.38;;;0.95;;
41903;SDS011;27586;51.124;4.182;2023-04-03T13:27:30;1.98;;;1.20;;
41903;SDS011;27586;51.124;4.182;2023-04-03T13:29:57;1.88;;;1.08;;
41903;SDS011;27586;51.124;4.182;2023-04-03T13:32:25;1.38;;;1.10;;
41903;SDS011;27586;51.124;4.182;2023-04-03T13:34:53;2.13;;;1.20;;
41903;SDS011;27586;51.124;4.182;2023-04-03T13:37:26;1.75;;;1.23;;
41903;SDS011;27586;51.124;4.182;2023-04-03T13:40:16;1.05;;;0.98;;
41903;SDS011;27586;51.124;4.182;2023-04-03T13:42:41;2.83;;;1.35;;
41903;SDS011;27586;51.124;4.182;2023-04-03T13:45:24;2.55;;;1.30;;
41903;SDS011;27586;51.124;4.182;2023-04-03T13:47:54;2.60;;;1.30;;
41903;SDS011;27586;51.124;4.182;2023-04-03T13:50:33;1.70;;;1.10;;
41903;SDS011;27586;51.124;4.182;2023-04-03T13:53:21;1.80;;;1.23;;
41903;SDS011;27586;51.124;4.182;2023-04-03T13:58:27;2.10;;;1.88;;
41903;SDS011;27586;51.124;4.182;2023-04-03T14:00:56;2.30;;;1.83;;
41903;SDS011;27586;51.124;4.182;2023-04-03T14:03:44;3.10;;;1.27;;
41903;SDS011;27586;51.124;4.182;2023-04-03T14:06:30;1.45;;;1.10;;
41903;SDS011;27586;51.124;4.182;2023-04-03T14:08:56;2.03;;;1.10;;
41903;SDS011;27586;51.124;4.182;2023-04-03T14:11:23;1.83;;;1.20;;
41903;SDS011;27586;51.124;4.182;2023-04-03T14:13:53;2.13;;;1.20;;
41903;SDS011;27586;51.124;4.182;2023-04-03T14:16:31;2.80;;;1.27;;
41903;SDS011;27586;51.124;4.182;2023-04-03T14:19:01;2.15;;;1.00;;
41903;SDS011;27586;51.124;4.182;2023-04-03T14:21:27;1.95;;;1.17;;
41903;SDS011;27586;51.124;4.182;2023-04-03T14:23:53;1.58;;;1.27;;
41903;SDS011;27586;51.124;4.182;2023-04-03T14:26:20;1.17;;;1.02;;
41903;SDS011;27586;51.124;4.182;2023-04-03T14:28:49;2.63;;;1.35;;
41903;SDS011;27586;51.124;4.182;2023-04-03T14:31:17;1.08;;;0.82;;
41903;SDS011;27586;51.124;4.182;2023-04-03T14:33:44;1.75;;;1.05;;
41903;SDS011;27586;51.124;4.182;2023-04-03T14:36:14;1.90;;;1.02;;
41903;SDS011;27586;51.124;4.182;2023-04-03T14:38:41;1.83;;;1.17;;
41903;SDS011;27586;51.124;4.182;2023-04-03T14:41:08;1.88;;;1.20;;
41903;SDS011;27586;51.124;4.182;2023-04-03T14:43:37;1.92;;;1.10;;
41903;SDS011;27586;51.124;4.182;2023-04-03T14:46:03;2.90;;;1.30;;
41903;SDS011;27586;51.124;4.182;2023-04-03T14:48:30;1.75;;;1.30;;
41903;SDS011;27586;51.124;4.182;2023-04-03T14:50:55;2.13;;;1.30;;
41903;SDS011;27586;51.124;4.182;2023-04-03T14:53:22;2.72;;;1.17;;
41903;SDS011;27586;51.124;4.182;2023-04-03T14:55:49;1.40;;;1.27;;
41903;SDS011;27586;51.124;4.182;2023-04-03T14:58:16;1.75;;;1.20;;
41903;SDS011;27586;51.124;4.182;2023-04-03T15:00:44;2.03;;;1.50;;
41903;SDS011;27586;51.124;4.182;2023-04-03T15:03:14;2.03;;;1.33;;
41903;SDS011;27586;51.124;4.182;2023-04-03T15:05:42;1.73;;;1.10;;
41903;SDS011;27586;51.124;4.182;2023-04-03T15:08:13;3.05;;;1.15;;
41903;SDS011;27586;51.124;4.182;2023-04-03T15:10:47;1.98;;;1.20;;
41903;SDS011;27586;51.124;4.182;2023-04-03T15:13:13;2.40;;;1.10;;
41903;SDS011;27586;51.124;4.182;2023-04-03T15:15:39;4.28;;;3.88;;
41903;SDS011;27586;51.124;4.182;2023-04-03T15:18:05;2.83;;;1.33;;
41903;SDS011;27586;51.124;4.182;2023-04-03T15:20:32;1.52;;;1.00;;
41903;SDS011;27586;51.124;4.182;2023-04-03T15:22:58;1.80;;;1.20;;
41903;SDS011;27586;51.124;4.182;2023-04-03T15:25:29;1.42;;;0.90;;
41903;SDS011;27586;51.124;4.182;2023-04-03T15:27:55;2.08;;;1.13;;
41903;SDS011;27586;51.124;4.182;2023-04-03T15:30:21;4.25;;;1.20;;
41903;SDS011;27586;51.124;4.182;2023-04-03T15:32:47;1.83;;;1.20;;
41903;SDS011;27586;51.124;4.182;2023-04-03T15:35:13;4.88;;;1.67;;
41903;SDS011;27586;51.124;4.182;2023-04-03T15:37:39;1.98;;;1.35;;
41903;SDS011;27586;51.124;4.182;2023-04-03T15:40:05;2.63;;;1.10;;
41903;SDS011;27586;51.124;4.182;2023-04-03T15:42:32;2.17;;;1.20;;
41903;SDS011;27586;51.124;4.182;2023-04-03T15:44:58;2.28;;;1.30;;
41903;SDS011;27586;51.124;4.182;2023-04-03T15:47:24;3.03;;;1.60;;
41903;SDS011;27586;51.124;4.182;2023-04-03T15:49:51;1.67;;;1.30;;
41903;SDS011;27586;51.124;4.182;2023-04-03T15:52:17;2.85;;;1.40;;
41903;SDS011;27586;51.124;4.182;2023-04-03T15:54:43;2.78;;;2.08;;
41903;SDS011;27586;51.124;4.182;2023-04-03T15:57:09;1.75;;;1.40;;
41903;SDS011;27586;51.124;4.182;2023-04-03T15:59:35;3.38;;;1.40;;
41903;SDS011;27586;51.124;4.182;2023-04-03T16:02:00;1.65;;;1.10;;
41903;SDS011;27586;51.124;4.182;2023-04-03T16:04:28;3.65;;;1.40;;
41903;SDS011;27586;51.124;4.182;2023-04-03T16:06:54;2.35;;;1.20;;
41903;SDS011;27586;51.124;4.182;2023-04-03T16:09:20;2.42;;;1.20;;
41903;SDS011;27586;51.124;4.182;2023-04-03T16:11:46;3.08;;;1.50;;
41903;SDS011;27586;51.124;4.182;2023-04-03T16:14:12;2.15;;;1.10;;
41903;SDS011;27586;51.124;4.182;2023-04-03T16:16:37;2.22;;;1.17;;
41903;SDS011;27586;51.124;4.182;2023-04-03T16:19:03;1.55;;;1.35;;
41903;SDS011;27586;51.124;4.182;2023-04-03T16:21:30;4.78;;;1.45;;
41903;SDS011;27586;51.124;4.182;2023-04-03T16:23:57;1.52;;;0.90;;